Childress Municipal Airport
KCDS : now visible

Airfield :











YOU CAN JOIN US ON...

 
LOGIN :

Register | Disclaimer

   EN    FR    IT 

 









Legend :    VFR   Marginal VFR   IFR   Intensive IFR   Very Intensive IFR
Visi :
Ceiling :
>= 8 km
>= 3000ft
5 to 8 km
1000 to 3000 ft
1500m to 5 km
500 to 1000 ft
800 to 1500m
200 to 500 ft
< 800m
< 200 ft
Symbols :   Thunderstorms  Fog  Heavy snow  Heavy precipitations  Wind > 20 kt






- Airport Elevation : 1954 ft


KCDS - Childress Municipal

CURRENT METAR :
  • 170253Z AUTO 14015G22KT 10SM -RA CLR 29/20 A2976 RMK AO2 SLP047 P0000 60000 T02940200 53009

EXPIRED METARs :
  • 170153Z AUTO 16013G23KT 10SM -RA CLR 31/19 A2975 RMK AO2 PK WND 17026/0104 SLP041 P0000 T03060194
  • 170053Z AUTO 16014G26KT 10SM -RA CLR 33/19 A2974 RMK AO2 PK WND 17026/0016 SLP039 P0000 T03280189
  • 162353Z AUTO 17017G28KT 10SM -RA CLR 33/18 A2973 RMK AO2 PK WND 18029/2317 SLP038 P0000 60000 T03330183 10350 20328 57009
  • 162253Z AUTO 17013G27KT 10SM -RA CLR 34/18 A2974 RMK AO2 PK WND 17029/2222 RAB25 SLP040 P0000 T03440183

TAF KCDS
Valid from the 17 at 00:00 until the 18 at 00:00 UTC


162334Z 1700/1724 16015G25KT P6SM FEW250
FM171800 17020G30KT P6SM FEW250
KZFW FIR / North America



MET'MAP, your aeronautical weather chart ! - Copyright ORBIFLY December 2007 - Disclaimer

ORBIFLY MET'MAP TEAM :

Programming & Development : Alexandra Zaïnal
Original concept : Baudouin d'Aumeries
Technical & hardware support : Manuel Goepfert
Assistance : Marc-Olivier Méhu




SOURCES & CREDITS :

   NOAA       Earth
Advisory